Allred, Tennessee
Current Conditions -  °F | °C
As of 5:53 PM on Monday 22 Dec 2014 (Local Time) from KCSV Reporting Station
Overcast Overcast  
Wind Chill: 50°   Ceiling: 1600
Heat Index: 50°   Visibility: 10mi
Dew Point: 45°   Wind: 7mph
Humidity: 83%   Direction: 160°SSE
Pressure: 29.81"   Gusts: NA
Location:  36.33°N, 85.19°W
Report Text: KCSV 222353Z AUTO 16006KT 10SM OVC016 10/07 A2981 RMK AO2 RAB2254E16 SLP093 P0003 60008 T01000072 10117 20094 56005
Loading
Personal Weather Stations






























Interactive Weather Map New forecast layout! Learn more

10-Day Weather Forecast

Advertisements
Track Severe Weather on mobile